Time;durP1;ratioP1;P1;durP2;ratioP2;P2;SDS_P1;SDS_P2;PMS_P1;PMS_P2;Temp;Humidity;BMP_temperature;BMP_pressure;BME280_temperature;BME280_humidity;BME280_pressure;Samples;Min_cycle;Max_cycle;Signal;HPM_P1;HPM_P2
2021/10/07 00:02:16;;;;;;;351.00;330.83;;;12.80;99.90;;;;;;5038319;28;20251;-82
2021/10/07 00:04:41;;;;;;;352.97;332.50;;;12.80;99.90;;;;;;5038337;28;20629;-82
2021/10/07 00:07:07;;;;;;;338.20;318.50;;;12.80;99.90;;;;;;5037762;28;20543;-82
2021/10/07 00:09:33;;;;;;;349.27;329.27;;;12.80;99.90;;;;;;5020177;28;20208;-83
2021/10/07 00:11:59;;;;;;;360.80;340.17;;;12.80;99.90;;;;;;5037591;28;20157;-82
2021/10/07 00:14:26;;;;;;;333.90;314.37;;;12.80;99.90;;;;;;5038112;28;20497;-82
2021/10/07 00:16:51;;;;;;;371.83;350.88;;;12.80;99.90;;;;;;5037394;28;20408;-82
2021/10/07 00:19:17;;;;;;;356.40;335.83;;;12.80;99.90;;;;;;5020189;28;20172;-82
2021/10/07 00:21:43;;;;;;;361.57;340.97;;;12.90;99.90;;;;;;5037895;28;20165;-83
2021/10/07 00:24:09;;;;;;;344.07;323.57;;;12.80;99.90;;;;;;5020182;28;20181;-83
2021/10/07 00:26:40;;;;;;;368.63;347.33;;;12.80;99.90;;;;;;5037981;28;20169;-83
2021/10/07 00:31:44;;;;;;;377.55;355.38;;;12.80;99.90;;;;;;5038416;28;20445;-82
2021/10/07 00:39:25;;;;;;;329.25;310.23;;;12.80;99.90;;;;;;5038431;28;20438;-82
2021/10/07 00:41:52;;;;;;;353.30;333.03;;;12.80;99.90;;;;;;5037964;28;20161;-82
2021/10/07 00:44:19;;;;;;;352.13;330.57;;;12.80;99.90;;;;;;5037324;28;20411;-83
2021/10/07 00:46:53;;;;;;;303.67;285.30;;;12.70;99.90;;;;;;5037388;28;20458;-82
2021/10/07 00:49:21;;;;;;;330.43;310.60;;;12.80;99.90;;;;;;5037618;28;20441;-82
2021/10/07 00:51:47;;;;;;;323.10;303.87;;;12.90;99.90;;;;;;5037436;28;20490;-82
2021/10/07 00:54:15;;;;;;;321.07;301.93;;;12.90;99.90;;;;;;5019970;28;20443;-82
2021/10/07 00:56:42;;;;;;;314.47;295.30;;;12.90;99.90;;;;;;5019321;28;20170;-82
2021/10/07 00:59:08;;;;;;;359.13;337.87;;;12.90;99.90;;;;;;5019951;28;20404;-82
2021/10/07 01:01:34;;;;;;;325.60;306.30;;;12.90;99.90;;;;;;5037020;28;20459;-82
2021/10/07 01:03:59;;;;;;;332.73;312.33;;;12.90;99.90;;;;;;5037460;28;20420;-83
2021/10/07 01:06:26;;;;;;;347.23;327.37;;;13.00;99.90;;;;;;5019285;28;20166;-83
2021/10/07 01:08:52;;;;;;;339.20;318.97;;;12.90;99.90;;;;;;5037044;28;20203;-83
2021/10/07 01:11:18;;;;;;;367.77;345.43;;;12.90;99.90;;;;;;5036782;28;20479;-82
2021/10/07 01:13:44;;;;;;;338.00;317.60;;;12.90;99.90;;;;;;5037544;28;20396;-82
2021/10/07 01:16:10;;;;;;;339.30;319.30;;;12.90;99.90;;;;;;5037158;28;20157;-82
2021/10/07 01:18:35;;;;;;;376.23;354.63;;;13.00;99.90;;;;;;5036939;28;20181;-83
2021/10/07 01:21:03;;;;;;;292.90;274.47;;;13.00;99.90;;;;;;5018955;28;20416;-83
2021/10/07 01:23:29;;;;;;;344.67;324.37;;;13.00;99.90;;;;;;5019010;28;20180;-83
2021/10/07 01:25:55;;;;;;;374.33;352.43;;;12.90;99.90;;;;;;5036565;28;20930;-83
2021/10/07 01:28:20;;;;;;;332.53;312.50;;;13.00;99.90;;;;;;5018480;28;20452;-83
2021/10/07 01:30:46;;;;;;;326.80;307.40;;;12.90;99.90;;;;;;5036456;28;20168;-83
2021/10/07 01:33:12;;;;;;;341.10;320.87;;;12.90;99.90;;;;;;5036644;28;20172;-83
2021/10/07 01:35:38;;;;;;;358.00;336.70;;;12.90;99.90;;;;;;5036863;28;20899;-83
2021/10/07 01:38:04;;;;;;;343.97;322.97;;;13.00;99.90;;;;;;5035977;28;20239;-82
2021/10/07 01:40:30;;;;;;;326.37;306.80;;;13.00;99.90;;;;;;5018642;28;20415;-83
2021/10/07 01:42:56;;;;;;;302.40;283.97;;;13.00;99.90;;;;;;5036766;28;20941;-83
2021/10/07 01:45:22;;;;;;;384.23;361.47;;;12.90;99.90;;;;;;5036805;28;20412;-82
2021/10/07 01:47:48;;;;;;;350.57;329.53;;;12.90;99.90;;;;;;5036764;28;20950;-83
2021/10/07 01:50:15;;;;;;;344.13;324.00;;;13.00;99.90;;;;;;5036185;28;20529;-82
2021/10/07 01:52:41;;;;;;;368.10;346.53;;;13.00;99.90;;;;;;5036172;28;20408;-83
2021/10/07 01:55:09;;;;;;;344.90;324.13;;;13.00;99.90;;;;;;5036629;28;20403;-83
2021/10/07 01:57:35;;;;;;;333.70;313.03;;;13.00;99.90;;;;;;5018136;28;20443;-82
2021/10/07 02:00:01;;;;;;;326.07;306.20;;;13.00;99.90;;;;;;5035564;28;20419;-82
2021/10/07 02:02:26;;;;;;;329.77;309.37;;;13.00;99.90;;;;;;5035162;28;20416;-82
2021/10/07 02:04:52;;;;;;;314.87;295.17;;;13.00;99.90;;;;;;5036233;28;20252;-83
2021/10/07 02:07:20;;;;;;;345.60;325.23;;;13.00;99.90;;;;;;5018734;28;20672;-82
2021/10/07 02:09:46;;;;;;;324.37;304.63;;;13.00;99.90;;;;;;5018499;28;20537;-82
2021/10/07 02:12:12;;;;;;;323.03;303.53;;;13.00;99.90;;;;;;5035840;28;20400;-82
2021/10/07 02:14:38;;;;;;;337.47;317.40;;;12.90;99.90;;;;;;5018400;28;20172;-83
2021/10/07 02:17:04;;;;;;;340.10;319.13;;;13.00;99.90;;;;;;5035940;28;20196;-83
2021/10/07 02:19:29;;;;;;;328.57;308.37;;;13.00;99.90;;;;;;5018763;28;20400;-83
2021/10/07 02:21:58;;;;;;;317.47;298.27;;;13.00;99.90;;;;;;5018227;28;20416;-83
2021/10/07 02:24:25;;;;;;;320.87;300.73;;;13.00;99.90;;;;;;5018456;28;20172;-83
2021/10/07 02:26:51;;;;;;;344.63;324.15;;;13.00;99.90;;;;;;5036072;28;20407;-84
2021/10/07 02:29:17;;;;;;;338.73;318.43;;;13.00;99.90;;;;;;5036466;28;20192;-83
2021/10/07 02:31:43;;;;;;;364.23;342.67;;;13.00;99.90;;;;;;5035832;28;20166;-83
2021/10/07 02:34:08;;;;;;;348.50;327.87;;;12.90;99.90;;;;;;5036533;28;20555;-83
2021/10/07 02:36:34;;;;;;;338.00;317.80;;;12.90;99.90;;;;;;5017310;28;20169;-82
2021/10/07 02:39:00;;;;;;;303.13;283.97;;;12.90;99.90;;;;;;5034928;28;20188;-82
2021/10/07 02:41:26;;;;;;;307.27;288.60;;;12.90;99.90;;;;;;5035168;28;20252;-82
2021/10/07 02:43:52;;;;;;;329.03;309.30;;;12.90;99.90;;;;;;5035053;28;20165;-82
2021/10/07 02:46:18;;;;;;;335.43;314.47;;;12.90;99.90;;;;;;5035039;28;20487;-82
2021/10/07 02:48:44;;;;;;;342.67;322.03;;;13.00;99.90;;;;;;5035383;28;20534;-81
2021/10/07 02:51:10;;;;;;;333.65;313.42;;;13.00;99.90;;;;;;5017298;28;21010;-82
2021/10/07 02:53:37;;;;;;;306.90;288.40;;;13.00;99.90;;;;;;5035060;28;20193;-82
2021/10/07 02:56:04;;;;;;;278.08;260.17;;;13.00;99.90;;;;;;5034859;28;20400;-82
2021/10/07 02:58:30;;;;;;;286.98;268.35;;;12.90;99.90;;;;;;5017338;28;20247;-82
2021/10/07 03:00:55;;;;;;;288.67;270.27;;;12.90;99.90;;;;;;5036153;28;20173;-81
2021/10/07 03:03:21;;;;;;;317.43;297.60;;;12.90;99.90;;;;;;5035492;28;20438;-81
2021/10/07 03:05:47;;;;;;;289.63;271.27;;;12.90;99.90;;;;;;5017282;28;20177;-81
2021/10/07 03:08:13;;;;;;;298.07;279.23;;;12.90;99.90;;;;;;5034793;28;20284;-81
2021/10/07 03:10:39;;;;;;;313.23;293.87;;;12.90;99.90;;;;;;5016981;28;20412;-81
2021/10/07 03:13:04;;;;;;;307.27;288.20;;;12.90;99.90;;;;;;5037190;28;20189;-81
2021/10/07 03:15:30;;;;;;;317.43;297.03;;;12.90;99.90;;;;;;5038721;28;20165;-81
2021/10/07 03:17:55;;;;;;;291.80;273.17;;;12.90;99.90;;;;;;5020104;28;20193;-82
2021/10/07 03:20:21;;;;;;;310.50;290.97;;;12.90;99.90;;;;;;5020649;28;20439;-81
2021/10/07 03:22:47;;;;;;;300.67;281.30;;;12.90;99.90;;;;;;5020296;28;20184;-80
2021/10/07 03:25:13;;;;;;;327.70;307.37;;;12.90;99.90;;;;;;5038279;28;20176;-81
2021/10/07 03:27:38;;;;;;;306.57;287.67;;;12.90;99.90;;;;;;5019994;28;20708;-81
2021/10/07 03:30:05;;;;;;;313.30;293.53;;;12.90;99.90;;;;;;5037597;28;20404;-81
2021/10/07 03:32:31;;;;;;;297.97;279.23;;;12.90;99.90;;;;;;5020362;28;20244;-81
2021/10/07 03:34:57;;;;;;;281.60;263.43;;;12.90;99.90;;;;;;5037684;28;20483;-81
2021/10/07 03:37:22;;;;;;;328.67;308.63;;;12.90;99.90;;;;;;5037794;28;20587;-81
2021/10/07 03:39:48;;;;;;;299.43;280.80;;;12.90;99.90;;;;;;5037740;28;20173;-81
2021/10/07 03:42:14;;;;;;;273.03;255.53;;;12.90;99.90;;;;;;5037783;28;20532;-81
2021/10/07 03:44:41;;;;;;;326.03;305.90;;;12.90;99.90;;;;;;5020060;28;20172;-82
2021/10/07 03:47:07;;;;;;;301.40;282.70;;;12.90;99.90;;;;;;5037552;28;20458;-82
2021/10/07 03:49:33;;;;;;;280.03;261.43;;;12.90;99.90;;;;;;5037877;28;20440;-82
2021/10/07 03:51:58;;;;;;;310.90;290.70;;;12.90;99.90;;;;;;5037630;28;20436;-81
2021/10/07 03:54:24;;;;;;;310.40;290.33;;;13.00;99.90;;;;;;5037521;28;20169;-82
2021/10/07 03:56:50;;;;;;;305.97;286.87;;;12.90;99.90;;;;;;5037460;28;20169;-82
2021/10/07 03:59:15;;;;;;;288.33;270.37;;;12.90;99.90;;;;;;5037652;28;20176;-82
2021/10/07 04:01:41;;;;;;;291.93;273.10;;;12.90;99.90;;;;;;5037484;28;20185;-82
2021/10/07 04:04:07;;;;;;;293.90;275.80;;;12.90;99.90;;;;;;5019585;28;20172;-81
2021/10/07 04:06:33;;;;;;;294.80;275.93;;;12.90;99.90;;;;;;5037193;28;20620;-82
2021/10/07 04:08:58;;;;;;;292.23;273.07;;;12.90;99.90;;;;;;5037224;28;20525;-82
2021/10/07 04:11:26;;;;;;;285.90;267.77;;;12.90;99.90;;;;;;5037373;28;20161;-82
2021/10/07 04:13:52;;;;;;;298.23;279.57;;;12.90;99.90;;;;;;5020337;28;20180;-82
2021/10/07 04:16:21;;;;;;;268.23;250.63;;;12.90;99.90;;;;;;5037488;28;20763;-82
2021/10/07 04:18:46;;;;;;;269.30;251.40;;;12.90;99.90;;;;;;5019285;28;20193;-82
2021/10/07 04:21:17;;;;;;;273.07;255.00;;;12.90;99.90;;;;;;5019303;28;20510;-82
2021/10/07 04:23:42;;;;;;;291.30;272.43;;;12.90;99.90;;;;;;5035920;28;20172;-82
2021/10/07 04:26:08;;;;;;;283.93;265.33;;;12.90;99.90;;;;;;5036970;28;20412;-82
2021/10/07 04:28:35;;;;;;;260.10;242.97;;;12.90;99.90;;;;;;5037042;28;20652;-81
2021/10/07 04:31:01;;;;;;;286.83;268.73;;;12.90;99.90;;;;;;5036662;28;20499;-82
2021/10/07 04:33:27;;;;;;;283.67;265.77;;;12.90;99.90;;;;;;5036894;28;20489;-82
2021/10/07 04:35:52;;;;;;;290.17;272.30;;;12.90;99.90;;;;;;5037630;28;20408;-82
2021/10/07 04:38:18;;;;;;;316.73;297.47;;;12.90;99.90;;;;;;5037076;28;20549;-82
2021/10/07 04:40:44;;;;;;;290.10;271.60;;;12.90;99.90;;;;;;5036657;28;20177;-82
2021/10/07 04:43:09;;;;;;;247.90;230.97;;;12.90;99.90;;;;;;5036710;28;20656;-82
2021/10/07 04:45:35;;;;;;;257.67;240.80;;;12.90;99.90;;;;;;5036529;28;20219;-82
2021/10/07 04:48:01;;;;;;;285.13;266.63;;;12.90;99.90;;;;;;5036656;28;20205;-82
2021/10/07 04:50:26;;;;;;;286.97;268.60;;;12.90;99.90;;;;;;5037077;28;20315;-82
2021/10/07 04:52:52;;;;;;;321.93;301.57;;;12.90;99.90;;;;;;5036424;28;20173;-82
2021/10/07 04:55:18;;;;;;;307.43;287.90;;;12.90;99.90;;;;;;5037009;28;20613;-82
2021/10/07 04:57:43;;;;;;;258.57;241.83;;;12.90;99.90;;;;;;5036967;28;20189;-82
2021/10/07 05:00:10;;;;;;;281.87;264.17;;;12.90;99.90;;;;;;5037292;28;20820;-82
2021/10/07 05:02:37;;;;;;;274.03;256.23;;;12.90;99.90;;;;;;5018875;28;20188;-82
2021/10/07 05:05:08;;;;;;;291.83;273.07;;;12.90;99.90;;;;;;5018812;28;20860;-82
2021/10/07 05:07:34;;;;;;;277.07;259.30;;;12.90;99.90;;;;;;5036420;28;20486;-82
2021/10/07 05:10:00;;;;;;;292.50;274.37;;;12.90;99.90;;;;;;5036808;28;20408;-82
2021/10/07 05:12:25;;;;;;;289.93;271.50;;;12.90;99.90;;;;;;5018389;28;20169;-82
2021/10/07 05:14:51;;;;;;;262.57;245.13;;;12.80;99.90;;;;;;5018854;28;20419;-82
2021/10/07 05:17:17;;;;;;;314.93;294.97;;;12.80;99.90;;;;;;5037013;28;20193;-82
2021/10/07 05:19:42;;;;;;;303.40;284.40;;;12.80;99.90;;;;;;5036474;28;20169;-82
2021/10/07 05:22:08;;;;;;;320.67;301.27;;;12.80;99.90;;;;;;5019122;28;20173;-82
2021/10/07 05:24:34;;;;;;;308.90;290.30;;;12.80;99.90;;;;;;5036536;28;20165;-82
2021/10/07 05:27:00;;;;;;;308.93;290.17;;;12.80;99.90;;;;;;5036939;28;20185;-82
2021/10/07 05:29:26;;;;;;;281.53;263.07;;;12.90;99.90;;;;;;5036958;28;20414;-83
2021/10/07 05:31:51;;;;;;;276.37;258.47;;;12.90;99.90;;;;;;5035952;28;20173;-83
2021/10/07 05:34:17;;;;;;;297.97;278.83;;;12.90;99.90;;;;;;5037117;28;20259;-83
2021/10/07 05:36:43;;;;;;;313.80;294.67;;;12.90;99.90;;;;;;5036409;28;20173;-83
2021/10/07 05:39:09;;;;;;;291.87;273.30;;;12.90;99.90;;;;;;5019408;28;20215;-82
2021/10/07 05:41:36;;;;;;;312.90;293.43;;;12.90;99.90;;;;;;5036410;28;20408;-83
2021/10/07 05:44:02;;;;;;;263.17;245.83;;;12.90;99.90;;;;;;5036754;28;20454;-82
2021/10/07 05:46:27;;;;;;;299.57;280.30;;;12.90;99.90;;;;;;5036145;28;20425;-83
2021/10/07 05:48:53;;;;;;;288.23;269.47;;;12.90;99.90;;;;;;5036242;28;20296;-83
2021/10/07 05:51:19;;;;;;;295.47;276.93;;;12.90;99.90;;;;;;5035912;28;20193;-82
2021/10/07 05:53:45;;;;;;;270.67;253.27;;;12.80;99.90;;;;;;5036273;28;20698;-82
2021/10/07 05:56:11;;;;;;;280.47;261.80;;;12.80;99.90;;;;;;5035138;28;20187;-82
2021/10/07 05:58:36;;;;;;;264.87;247.77;;;12.80;99.90;;;;;;5035076;28;20467;-83
2021/10/07 06:01:02;;;;;;;298.37;279.50;;;12.80;99.90;;;;;;5035210;28;20184;-83
2021/10/07 06:03:27;;;;;;;284.13;266.00;;;12.80;99.90;;;;;;5035080;28;20231;-82
2021/10/07 06:05:53;;;;;;;276.63;258.87;;;12.80;99.90;;;;;;5017076;28;20173;-83
2021/10/07 06:08:19;;;;;;;304.13;285.03;;;12.80;99.90;;;;;;5035175;28;20189;-82
2021/10/07 06:10:44;;;;;;;281.43;263.63;;;12.80;99.90;;;;;;5035211;28;20165;-83
2021/10/07 06:13:10;;;;;;;288.33;269.60;;;12.80;99.90;;;;;;5034608;28;20234;-83
2021/10/07 06:15:36;;;;;;;303.27;283.93;;;12.70;99.90;;;;;;5034991;28;20198;-83
2021/10/07 06:18:01;;;;;;;289.83;271.20;;;12.60;99.90;;;;;;5016946;28;20247;-83
2021/10/07 06:20:34;;;;;;;303.40;284.13;;;12.70;99.90;;;;;;5035359;28;20172;-83
2021/10/07 06:23:03;;;;;;;291.03;272.47;;;12.80;99.90;;;;;;5017440;28;20191;-82
2021/10/07 06:25:30;;;;;;;319.17;298.83;;;12.80;99.90;;;;;;5035105;28;20458;-83
2021/10/07 06:27:55;;;;;;;289.83;271.07;;;13.00;99.90;;;;;;5017126;28;20512;-83
2021/10/07 06:30:22;;;;;;;255.80;238.67;;;13.10;99.90;;;;;;5035177;28;20489;-83
2021/10/07 06:32:49;;;;;;;275.93;257.07;;;13.10;99.90;;;;;;5017224;28;20174;-82
2021/10/07 06:35:15;;;;;;;285.73;267.13;;;13.20;99.90;;;;;;5034890;28;20411;-83
2021/10/07 06:37:41;;;;;;;272.43;253.73;;;13.30;99.90;;;;;;5035564;28;20426;-83
2021/10/07 06:40:08;;;;;;;276.83;258.53;;;13.30;99.90;;;;;;5017795;28;20466;-83
2021/10/07 06:42:34;;;;;;;267.90;249.43;;;13.30;99.90;;;;;;5017849;28;20440;-83
2021/10/07 06:45:04;;;;;;;259.63;241.40;;;13.30;99.90;;;;;;5035541;28;20910;-82
2021/10/07 06:47:30;;;;;;;245.80;228.47;;;13.30;99.90;;;;;;5037691;28;20815;-83
2021/10/07 06:49:55;;;;;;;255.63;237.73;;;13.30;99.90;;;;;;5039193;28;20406;-83
2021/10/07 06:52:21;;;;;;;265.37;248.07;;;13.30;99.90;;;;;;5039290;28;20571;-82
2021/10/07 06:54:46;;;;;;;252.50;235.40;;;13.30;99.90;;;;;;5021050;28;20173;-83
2021/10/07 06:57:12;;;;;;;258.07;239.57;;;13.30;99.90;;;;;;5038912;28;20193;-83
2021/10/07 06:59:38;;;;;;;275.87;257.67;;;13.40;99.90;;;;;;5039036;28;20621;-83
2021/10/07 07:02:04;;;;;;;288.77;269.97;;;13.40;99.90;;;;;;5117058;23;20583;-82
2021/10/07 07:04:29;;;;;;;276.23;257.20;;;13.50;99.90;;;;;;5063820;28;20173;-82
2021/10/07 07:06:55;;;;;;;277.10;258.93;;;13.50;99.90;;;;;;5063747;28;20456;-82
2021/10/07 07:09:21;;;;;;;282.73;264.03;;;13.40;99.90;;;;;;5064043;28;20161;-82
2021/10/07 07:11:47;;;;;;;303.27;283.53;;;13.40;99.90;;;;;;5047160;28;20559;-82
2021/10/07 07:14:13;;;;;;;302.00;282.50;;;13.30;99.90;;;;;;5064458;28;20160;-82
2021/10/07 07:16:38;;;;;;;278.90;260.20;;;13.30;99.90;;;;;;5065565;28;20406;-82
2021/10/07 07:19:04;;;;;;;299.47;280.23;;;13.20;99.90;;;;;;5065088;28;20224;-82
2021/10/07 07:21:32;;;;;;;299.20;280.30;;;13.20;99.90;;;;;;5065017;28;20195;-82
2021/10/07 07:24:00;;;;;;;325.57;305.70;;;13.30;99.90;;;;;;5047140;28;20415;-82
2021/10/07 07:26:27;;;;;;;307.17;287.53;;;13.30;99.90;;;;;;5064876;28;20403;-82
2021/10/07 07:31:23;;;;;;;323.63;304.03;;;13.30;99.90;;;;;;5300151;22;20481;-83
2021/10/07 07:36:22;;;;;;;355.60;334.73;;;13.20;99.90;;;;;;5357263;22;20490;-82
2021/10/07 07:38:48;;;;;;;349.17;327.53;;;13.20;99.90;;;;;;5059658;28;20449;-83
2021/10/07 07:41:15;;;;;;;316.37;296.50;;;13.20;99.90;;;;;;5060042;28;20406;-83
2021/10/07 07:43:42;;;;;;;315.63;295.53;;;13.30;99.90;;;;;;5059607;28;20403;-83
2021/10/07 07:46:08;;;;;;;281.97;263.27;;;13.40;99.90;;;;;;5059883;28;20395;-84
2021/10/07 07:48:36;;;;;;;326.23;306.03;;;13.40;99.90;;;;;;5059221;28;20457;-84
2021/10/07 07:51:03;;;;;;;350.87;329.27;;;13.50;99.90;;;;;;5059111;28;20415;-83
2021/10/07 07:53:29;;;;;;;325.07;305.43;;;13.50;99.90;;;;;;5059380;28;20395;-83
2021/10/07 07:55:54;;;;;;;349.97;328.90;;;13.50;99.90;;;;;;5059469;28;20434;-81
2021/10/07 07:58:21;;;;;;;332.77;312.43;;;13.50;99.90;;;;;;5057804;28;20430;-80
2021/10/07 08:00:47;;;;;;;353.13;332.10;;;13.40;99.90;;;;;;5059385;28;20691;-80
2021/10/07 08:03:14;;;;;;;363.33;340.70;;;13.50;99.90;;;;;;5058808;28;20739;-80
2021/10/07 08:05:40;;;;;;;362.73;340.73;;;13.50;99.90;;;;;;5058359;28;20496;-80
2021/10/07 08:08:05;;;;;;;323.90;303.53;;;13.50;99.90;;;;;;5058870;28;20442;-82
2021/10/07 08:10:32;;;;;;;366.60;344.97;;;13.60;99.90;;;;;;5041346;28;20423;-82
2021/10/07 08:12:59;;;;;;;350.57;329.87;;;13.60;99.90;;;;;;5059175;28;20403;-83
2021/10/07 08:15:26;;;;;;;343.17;321.70;;;13.60;99.90;;;;;;5059187;28;20782;-83
2021/10/07 08:17:52;;;;;;;322.83;302.07;;;13.70;99.90;;;;;;5058537;28;20454;-82
2021/10/07 08:20:18;;;;;;;289.33;270.03;;;13.80;99.90;;;;;;5059089;28;20430;-81
2021/10/07 08:22:46;;;;;;;325.27;304.03;;;13.70;99.90;;;;;;5058489;28;20767;-80
2021/10/07 08:25:12;;;;;;;271.90;253.13;;;13.90;99.90;;;;;;5058890;28;20899;-81
2021/10/07 08:27:38;;;;;;;312.73;292.20;;;13.70;99.90;;;;;;5040476;28;20450;-81
2021/10/07 08:30:06;;;;;;;278.37;259.20;;;13.90;99.90;;;;;;5058133;28;20396;-80
2021/10/07 08:32:32;;;;;;;333.97;313.03;;;13.90;99.90;;;;;;5058495;28;20395;-80
2021/10/07 08:34:58;;;;;;;331.57;310.47;;;14.10;99.90;;;;;;5058135;28;20423;-80
2021/10/07 08:37:24;;;;;;;378.13;355.60;;;14.40;99.90;;;;;;5057821;28;20196;-81
2021/10/07 08:39:50;;;;;;;333.77;313.03;;;14.50;99.90;;;;;;5057533;28;20430;-80
2021/10/07 08:42:16;;;;;;;244.27;226.43;;;14.50;99.90;;;;;;5058120;28;20256;-81
2021/10/07 08:44:45;;;;;;;220.57;202.27;;;14.50;99.90;;;;;;5057522;28;20232;-81
2021/10/07 08:47:12;;;;;;;226.53;208.13;;;14.60;99.90;;;;;;5039823;28;20194;-81
2021/10/07 08:49:42;;;;;;;245.97;227.80;;;14.50;99.90;;;;;;5040444;28;20493;-81
2021/10/07 08:52:07;;;;;;;235.00;217.50;;;14.60;99.90;;;;;;5039785;28;20414;-82
2021/10/07 08:54:34;;;;;;;275.30;255.50;;;14.50;99.90;;;;;;5058036;28;20395;-84
2021/10/07 08:57:01;;;;;;;324.43;303.97;;;14.40;99.90;;;;;;5057467;28;20196;-83
2021/10/07 08:59:27;;;;;;;322.47;301.07;;;14.20;99.90;;;;;;5058024;28;20399;-83
2021/10/07 09:01:58;;;;;;;298.27;278.73;;;14.10;99.90;;;;;;5039833;28;20399;-83
2021/10/07 09:04:33;;;;;;;302.37;282.03;;;14.10;99.90;;;;;;5038985;28;20400;-82
2021/10/07 09:07:10;;;;;;;335.73;314.67;;;14.10;99.90;;;;;;5058301;28;20419;-83
2021/10/07 09:09:39;;;;;;;277.63;257.80;;;14.10;99.90;;;;;;5038333;28;20431;-83
2021/10/07 09:12:10;;;;;;;297.70;277.93;;;14.30;99.90;;;;;;5057571;28;20403;-83
2021/10/07 09:14:38;;;;;;;296.80;276.63;;;14.20;99.90;;;;;;5057618;28;20387;-83
2021/10/07 09:17:06;;;;;;;308.00;287.47;;;14.30;99.90;;;;;;5057028;28;20423;-83
2021/10/07 09:19:39;;;;;;;301.77;281.37;;;14.40;99.90;;;;;;5056524;28;20410;-83
2021/10/07 09:22:25;;;;;;;262.77;243.93;;;14.40;99.90;;;;;;5057698;28;20424;-83
2021/10/07 09:24:59;;;;;;;243.73;225.70;;;14.40;99.90;;;;;;5056624;28;20400;-83
2021/10/07 09:27:29;;;;;;;258.10;240.03;;;14.50;99.90;;;;;;5057131;28;20450;-83
2021/10/07 09:30:00;;;;;;;241.60;223.23;;;14.40;99.90;;;;;;5056382;28;20403;-83
2021/10/07 09:32:27;;;;;;;231.57;214.13;;;14.40;99.90;;;;;;5056309;28;20423;-82
2021/10/07 09:34:54;;;;;;;193.20;177.30;;;14.60;99.90;;;;;;5056306;28;20403;-82
2021/10/07 09:37:32;;;;;;;175.77;160.47;;;14.80;99.90;;;;;;5059312;28;20442;-82
2021/10/07 09:40:11;;;;;;;222.50;204.43;;;14.70;99.90;;;;;;5056581;28;20404;-83
2021/10/07 09:42:47;;;;;;;257.53;238.73;;;14.60;99.90;;;;;;5038909;28;20407;-83
2021/10/07 09:45:23;;;;;;;264.30;245.30;;;14.60;99.90;;;;;;5038340;28;20411;-83
2021/10/07 09:47:59;;;;;;;263.20;245.07;;;14.60;99.90;;;;;;5056369;28;20455;-83
2021/10/07 09:50:38;;;;;;;337.03;315.73;;;14.60;99.90;;;;;;5056683;28;20389;-83
2021/10/07 09:53:12;;;;;;;311.97;292.10;;;14.80;99.90;;;;;;5056165;28;20949;-83
2021/10/07 09:55:42;;;;;;;354.13;332.43;;;14.80;99.90;;;;;;5055538;28;20390;-82
2021/10/07 09:58:22;;;;;;;341.33;320.03;;;14.70;99.90;;;;;;5037980;28;20459;-82
2021/10/07 10:00:51;;;;;;;317.00;296.80;;;14.60;99.90;;;;;;5038479;28;20500;-82
2021/10/07 10:03:18;;;;;;;359.13;337.03;;;14.50;99.90;;;;;;5056114;28;20404;-83
2021/10/07 10:05:45;;;;;;;353.57;331.43;;;14.70;99.90;;;;;;5055970;28;20408;-83
2021/10/07 10:08:13;;;;;;;376.97;354.03;;;14.70;99.90;;;;;;5038372;28;20550;-83
2021/10/07 10:10:41;;;;;;;336.87;315.80;;;14.80;99.90;;;;;;5056648;28;20388;-83
2021/10/07 10:13:08;;;;;;;287.47;267.87;;;14.80;99.90;;;;;;5037705;28;20420;-82
2021/10/07 10:15:35;;;;;;;332.37;310.80;;;14.90;99.90;;;;;;5056295;28;20452;-83
2021/10/07 10:18:15;;;;;;;350.60;328.90;;;14.80;99.90;;;;;;5056382;28;20423;-83
2021/10/07 10:20:48;;;;;;;371.60;348.20;;;14.70;99.90;;;;;;5056559;28;20501;-83
2021/10/07 10:23:16;;;;;;;361.63;339.77;;;14.70;99.90;;;;;;5058969;28;20380;-83
2021/10/07 10:26:04;;;;;;;363.10;340.70;;;14.80;99.90;;;;;;5059944;28;20419;-82
2021/10/07 10:28:53;;;;;;;331.30;310.43;;;15.00;99.90;;;;;;5060542;28;20455;-83
2021/10/07 10:31:35;;;;;;;306.93;287.67;;;15.10;99.90;;;;;;5060303;28;20875;-83
2021/10/07 10:34:15;;;;;;;365.20;343.23;;;14.90;99.90;;;;;;5059809;28;20825;-82
2021/10/07 10:36:45;;;;;;;334.57;313.87;;;15.20;99.90;;;;;;5059530;28;20427;-83
2021/10/07 10:39:39;;;;;;;204.97;188.47;;;15.30;99.90;;;;;;5041905;28;20510;-82
2021/10/07 10:42:05;;;;;;;144.90;131.10;;;15.40;99.90;;;;;;5060033;28;20381;-83
2021/10/07 10:44:45;;;;;;;104.67;68.77;;;15.60;99.90;;;;;;5060024;28;20399;-82
2021/10/07 10:47:11;;;;;;;99.37;53.43;;;15.60;99.90;;;;;;5060342;28;20189;-83
2021/10/07 10:49:37;;;;;;;92.73;55.07;;;15.60;99.90;;;;;;5059991;28;20824;-82
2021/10/07 10:52:16;;;;;;;96.27;62.60;;;15.50;99.90;;;;;;5059931;28;20189;-82
2021/10/07 10:54:51;;;;;;;99.63;62.90;;;15.60;99.90;;;;;;5041968;28;20166;-82
2021/10/07 10:57:37;;;;;;;102.00;65.33;;;15.70;99.90;;;;;;5059826;28;20416;-82
2021/10/07 11:00:07;;;;;;;89.60;42.97;;;15.80;99.90;;;;;;5059894;28;20400;-82
2021/10/07 11:02:33;;;;;;;87.47;41.10;;;15.70;99.90;;;;;;5060197;28;20427;-82
2021/10/07 11:05:18;;;;;;;152.50;138.47;;;15.80;99.90;;;;;;5059461;28;20393;-82
2021/10/07 11:07:46;;;;;;;147.80;134.37;;;15.90;99.90;;;;;;5041861;28;20459;-82
2021/10/07 11:10:29;;;;;;;141.07;128.13;;;15.90;99.90;;;;;;5059139;28;20432;-82
2021/10/07 11:12:58;;;;;;;135.70;123.20;;;15.80;99.90;;;;;;5059270;28;20383;-81
2021/10/07 11:15:31;;;;;;;104.27;92.97;;;15.80;99.90;;;;;;5060987;28;20459;-82
2021/10/07 11:18:00;;;;;;;142.03;129.23;;;15.80;99.90;;;;;;5060379;28;20478;-82
2021/10/07 11:20:34;;;;;;;134.97;122.27;;;15.80;99.90;;;;;;5059786;28;20935;-82
2021/10/07 11:23:02;;;;;;;133.87;121.27;;;15.80;99.90;;;;;;5060690;28;20385;-82
2021/10/07 11:25:28;;;;;;;127.00;114.57;;;15.90;99.90;;;;;;5058744;28;20756;-82
2021/10/07 11:27:54;;;;;;;141.30;128.10;;;15.90;99.90;;;;;;5041204;28;20449;-82
2021/10/07 11:30:22;;;;;;;126.23;113.70;;;15.70;99.90;;;;;;5040330;28;20417;-81
2021/10/07 11:32:48;;;;;;;120.73;108.37;;;15.90;99.90;;;;;;5057749;28;20167;-82
2021/10/07 11:35:16;;;;;;;119.60;107.10;;;16.00;99.90;;;;;;5058158;28;20385;-82
2021/10/07 11:38:18;;;;;;;132.57;119.97;;;16.00;99.90;;;;;;5059036;28;20448;-82
2021/10/07 11:40:49;;;;;;;131.27;118.90;;;16.10;99.90;;;;;;5058330;28;20481;-82
2021/10/07 11:43:27;;;;;;;131.77;119.03;;;16.50;99.90;;;;;;5058953;28;20394;-82
2021/10/07 11:45:57;;;;;;;111.40;99.27;;;16.80;99.90;;;;;;5041006;28;20399;-82
2021/10/07 11:48:23;;;;;;;92.60;52.83;;;17.00;99.90;;;;;;5057838;28;20435;-79
2021/10/07 11:50:52;;;;;;;102.03;90.93;;;16.70;99.90;;;;;;5058344;28;20400;-79
2021/10/07 11:53:30;;;;;;;94.10;65.53;;;17.00;99.90;;;;;;5058680;28;20405;-79
2021/10/07 11:55:57;;;;;;;83.67;34.60;;;17.20;99.90;;;;;;5057965;28;20401;-79
2021/10/07 11:58:29;;;;;;;91.70;49.13;;;17.10;99.90;;;;;;5043143;28;20458;-81
2021/10/07 12:00:55;;;;;;;84.77;34.97;;;17.10;99.90;;;;;;5059459;28;20391;-81
2021/10/07 12:03:32;;;;;;;79.30;28.93;;;17.50;99.90;;;;;;5064225;28;20826;-79
2021/10/07 12:06:10;;;;;;;80.93;21.60;;;17.70;99.90;;;;;;5061186;28;20460;-80
2021/10/07 12:08:41;;;;;;;81.07;30.83;;;17.50;99.90;;;;;;5065750;28;20497;-80
2021/10/07 12:11:21;;;;;;;82.30;28.30;;;17.00;99.90;;;;;;5066551;28;20400;-79
2021/10/07 12:13:58;;;;;;;79.57;27.20;;;17.20;99.90;;;;;;5066291;28;20482;-79
2021/10/07 12:16:28;;;;;;;80.53;24.60;;;17.40;99.90;;;;;;5063937;28;20376;-79
2021/10/07 12:19:01;;;;;;;92.43;57.73;;;17.70;99.90;;;;;;5047212;28;20499;-79
2021/10/07 12:21:32;;;;;;;78.43;30.10;;;17.60;99.90;;;;;;5061272;28;20472;-79
2021/10/07 12:24:07;;;;;;;88.30;46.97;;;17.70;98.50;;;;;;5060206;28;20470;-79
2021/10/07 12:26:40;;;;;;;81.73;39.40;;;17.70;99.90;;;;;;5060933;28;20789;-80